sensor_id;sensor_type;location;lat;lon;timestamp;pressure;altitude;pressure_sealevel;temperature;humidity
77279;BME280;66332;50.436;15.378;2023-03-31T04:00:25;97480.59;;;3.31;90.51
77279;BME280;66332;50.436;15.378;2023-03-31T04:05:06;97472.47;;;3.26;91.30
77279;BME280;66332;50.436;15.378;2023-03-31T04:09:47;97461.72;;;3.21;91.14
77279;BME280;66332;50.436;15.378;2023-03-31T04:14:28;97436.00;;;2.92;92.25
77279;BME280;66332;50.436;15.378;2023-03-31T04:19:09;97437.63;;;3.11;93.20
77279;BME280;66332;50.436;15.378;2023-03-31T04:23:53;97425.78;;;3.16;93.73
77279;BME280;66332;50.436;15.378;2023-03-31T04:28:44;97429.69;;;3.47;94.51
77279;BME280;66332;50.436;15.378;2023-03-31T04:33:30;97423.38;;;3.41;93.97
77279;BME280;66332;50.436;15.378;2023-03-31T04:38:23;97413.72;;;3.59;93.72
77279;BME280;66332;50.436;15.378;2023-03-31T04:43:06;97420.91;;;3.74;92.71
77279;BME280;66332;50.436;15.378;2023-03-31T04:47:47;97414.53;;;3.68;91.31
77279;BME280;66332;50.436;15.378;2023-03-31T04:52:28;97414.66;;;3.50;91.65
77279;BME280;66332;50.436;15.378;2023-03-31T04:57:09;97407.22;;;3.29;90.87
77279;BME280;66332;50.436;15.378;2023-03-31T05:01:50;97411.00;;;3.43;91.41
77279;BME280;66332;50.436;15.378;2023-03-31T05:06:32;97387.25;;;3.30;90.39
77279;BME280;66332;50.436;15.378;2023-03-31T05:11:13;97385.09;;;3.25;92.71
77279;BME280;66332;50.436;15.378;2023-03-31T05:15:53;97384.16;;;3.26;92.53
77279;BME280;66332;50.436;15.378;2023-03-31T05:20:34;97385.31;;;3.32;91.85
77279;BME280;66332;50.436;15.378;2023-03-31T05:25:15;97386.50;;;3.45;93.52
77279;BME280;66332;50.436;15.378;2023-03-31T05:29:58;97378.63;;;3.29;93.72
77279;BME280;66332;50.436;15.378;2023-03-31T05:34:39;97373.63;;;3.70;93.39
77279;BME280;66332;50.436;15.378;2023-03-31T05:39:22;97365.84;;;3.78;94.26
77279;BME280;66332;50.436;15.378;2023-03-31T05:44:03;97352.75;;;3.96;94.61
77279;BME280;66332;50.436;15.378;2023-03-31T05:48:43;97349.53;;;4.27;95.06
77279;BME280;66332;50.436;15.378;2023-03-31T05:53:25;97340.41;;;4.47;94.88
77279;BME280;66332;50.436;15.378;2023-03-31T05:58:06;97356.34;;;4.77;94.32
77279;BME280;66332;50.436;15.378;2023-03-31T06:02:48;97347.72;;;4.85;94.45
77279;BME280;66332;50.436;15.378;2023-03-31T06:07:29;97349.81;;;5.05;94.42
77279;BME280;66332;50.436;15.378;2023-03-31T06:12:10;97349.13;;;5.20;93.66
77279;BME280;66332;50.436;15.378;2023-03-31T06:16:51;97338.19;;;5.24;94.42
77279;BME280;66332;50.436;15.378;2023-03-31T06:21:32;97331.75;;;5.51;94.31
77279;BME280;66332;50.436;15.378;2023-03-31T06:26:15;97325.00;;;5.65;93.95
77279;BME280;66332;50.436;15.378;2023-03-31T06:31:07;97321.78;;;5.86;93.70
77279;BME280;66332;50.436;15.378;2023-03-31T06:35:48;97308.41;;;5.97;93.10
77279;BME280;66332;50.436;15.378;2023-03-31T06:40:29;97318.69;;;5.91;93.25
77279;BME280;66332;50.436;15.378;2023-03-31T06:45:10;97308.59;;;6.57;91.71
77279;BME280;66332;50.436;15.378;2023-03-31T06:49:51;97295.66;;;6.93;91.34
77279;BME280;66332;50.436;15.378;2023-03-31T06:54:32;97289.00;;;7.20;89.44
77279;BME280;66332;50.436;15.378;2023-03-31T06:59:13;97284.59;;;7.35;90.15
77279;BME280;66332;50.436;15.378;2023-03-31T07:03:54;97288.53;;;7.61;88.38
77279;BME280;66332;50.436;15.378;2023-03-31T07:08:35;97287.03;;;7.88;87.51
77279;BME280;66332;50.436;15.378;2023-03-31T07:13:16;97279.84;;;7.97;88.90
77279;BME280;66332;50.436;15.378;2023-03-31T07:17:57;97290.09;;;8.56;87.77
77279;BME280;66332;50.436;15.378;2023-03-31T07:34:32;97267.63;;;8.47;87.48
77279;BME280;66332;50.436;15.378;2023-03-31T07:39:13;97267.16;;;8.65;87.61
77279;BME280;66332;50.436;15.378;2023-03-31T07:43:55;97259.06;;;8.60;88.80
77279;BME280;66332;50.436;15.378;2023-03-31T07:48:36;97260.38;;;8.70;87.96
77279;BME280;66332;50.436;15.378;2023-03-31T07:53:18;97238.88;;;8.88;88.08
77279;BME280;66332;50.436;15.378;2023-03-31T07:57:59;97244.00;;;9.03;86.34
77279;BME280;66332;50.436;15.378;2023-03-31T08:02:41;97239.19;;;9.07;87.23
77279;BME280;66332;50.436;15.378;2023-03-31T08:07:24;97232.34;;;9.12;86.48
77279;BME280;66332;50.436;15.378;2023-03-31T08:12:06;97225.50;;;9.11;86.71
77279;BME280;66332;50.436;15.378;2023-03-31T08:16:47;97209.81;;;9.25;86.49
77279;BME280;66332;50.436;15.378;2023-03-31T08:21:29;97202.81;;;9.38;86.23
77279;BME280;66332;50.436;15.378;2023-03-31T08:26:17;97204.88;;;9.56;83.97
77279;BME280;66332;50.436;15.378;2023-03-31T08:31:05;97197.06;;;9.83;84.14
77279;BME280;66332;50.436;15.378;2023-03-31T08:35:48;97191.78;;;9.76;83.95
77279;BME280;66332;50.436;15.378;2023-03-31T08:40:30;97179.72;;;9.95;83.17
77279;BME280;66332;50.436;15.378;2023-03-31T08:50:14;97171.63;;;10.03;82.93
77279;BME280;66332;50.436;15.378;2023-03-31T08:55:03;97182.94;;;9.91;82.33
77279;BME280;66332;50.436;15.378;2023-03-31T08:59:46;97176.06;;;10.03;82.22
77279;BME280;66332;50.436;15.378;2023-03-31T09:10:09;97174.44;;;10.08;83.19
77279;BME280;66332;50.436;15.378;2023-03-31T09:15:03;97173.22;;;9.98;84.19
77279;BME280;66332;50.436;15.378;2023-03-31T09:24:51;97152.63;;;9.95;85.02
77279;BME280;66332;50.436;15.378;2023-03-31T09:29:54;97155.47;;;9.93;84.43
77279;BME280;66332;50.436;15.378;2023-03-31T09:34:38;97143.75;;;9.96;85.16
77279;BME280;66332;50.436;15.378;2023-03-31T09:39:19;97134.25;;;10.01;84.77
77279;BME280;66332;50.436;15.378;2023-03-31T09:44:00;97118.31;;;9.90;85.41
77279;BME280;66332;50.436;15.378;2023-03-31T09:48:52;97108.22;;;9.86;86.28
77279;BME280;66332;50.436;15.378;2023-03-31T09:54:01;97099.31;;;9.87;86.89
77279;BME280;66332;50.436;15.378;2023-03-31T09:58:50;97092.22;;;9.95;87.40
77279;BME280;66332;50.436;15.378;2023-03-31T10:03:31;97079.50;;;9.92;86.58
77279;BME280;66332;50.436;15.378;2023-03-31T10:12:58;97070.22;;;10.02;86.87
77279;BME280;66332;50.436;15.378;2023-03-31T10:17:43;97057.09;;;10.02;87.21
77279;BME280;66332;50.436;15.378;2023-03-31T10:22:29;97052.44;;;10.04;87.06
77279;BME280;66332;50.436;15.378;2023-03-31T10:27:23;97049.81;;;10.04;86.55
77279;BME280;66332;50.436;15.378;2023-03-31T10:32:23;97045.94;;;10.07;86.87
77279;BME280;66332;50.436;15.378;2023-03-31T10:37:16;97038.69;;;10.02;87.02
77279;BME280;66332;50.436;15.378;2023-03-31T10:41:58;97038.72;;;9.96;88.43
77279;BME280;66332;50.436;15.378;2023-03-31T10:46:51;97036.06;;;10.02;88.73
77279;BME280;66332;50.436;15.378;2023-03-31T10:51:32;97036.25;;;10.14;88.95
77279;BME280;66332;50.436;15.378;2023-03-31T11:12:20;97007.16;;;10.16;88.84
77279;BME280;66332;50.436;15.378;2023-03-31T11:21:52;96984.91;;;10.18;90.77
77279;BME280;66332;50.436;15.378;2023-03-31T11:41:18;96926.28;;;10.31;87.19
77279;BME280;66332;50.436;15.378;2023-03-31T11:46:07;96928.34;;;10.16;87.28
77279;BME280;66332;50.436;15.378;2023-03-31T11:50:52;96921.91;;;10.11;88.12
77279;BME280;66332;50.436;15.378;2023-03-31T11:55:36;96916.53;;;9.93;87.60
77279;BME280;66332;50.436;15.378;2023-03-31T12:00:22;96904.38;;;9.99;88.75
77279;BME280;66332;50.436;15.378;2023-03-31T12:05:05;96900.38;;;9.90;88.98
77279;BME280;66332;50.436;15.378;2023-03-31T12:09:54;96896.59;;;9.72;89.50
77279;BME280;66332;50.436;15.378;2023-03-31T12:14:49;96899.06;;;9.54;90.67
77279;BME280;66332;50.436;15.378;2023-03-31T12:19:52;96883.53;;;9.52;89.93
77279;BME280;66332;50.436;15.378;2023-03-31T12:24:36;96882.94;;;9.50;91.24
77279;BME280;66332;50.436;15.378;2023-03-31T12:29:37;96882.50;;;9.60;90.65
77279;BME280;66332;50.436;15.378;2023-03-31T12:34:21;96875.63;;;9.65;91.16
77279;BME280;66332;50.436;15.378;2023-03-31T12:39:26;96869.97;;;9.69;91.27
77279;BME280;66332;50.436;15.378;2023-03-31T12:49:49;96851.06;;;9.47;90.81
77279;BME280;66332;50.436;15.378;2023-03-31T13:04:20;96776.72;;;9.59;90.75
77279;BME280;66332;50.436;15.378;2023-03-31T13:09:02;96791.84;;;9.64;89.70
77279;BME280;66332;50.436;15.378;2023-03-31T13:13:58;96822.13;;;9.67;90.30
77279;BME280;66332;50.436;15.378;2023-03-31T13:18:39;96814.31;;;9.53;90.67
77279;BME280;66332;50.436;15.378;2023-03-31T13:23:23;96807.00;;;9.55;90.48
77279;BME280;66332;50.436;15.378;2023-03-31T13:33:04;96778.69;;;9.71;89.80
77279;BME280;66332;50.436;15.378;2023-03-31T13:43:21;96759.88;;;9.74;87.72
77279;BME280;66332;50.436;15.378;2023-03-31T13:58:18;96714.56;;;9.92;85.92
77279;BME280;66332;50.436;15.378;2023-03-31T14:08:09;96696.41;;;10.15;85.34
77279;BME280;66332;50.436;15.378;2023-03-31T14:13:07;96688.41;;;10.03;85.34
77279;BME280;66332;50.436;15.378;2023-03-31T14:17:47;96677.00;;;10.16;86.91
77279;BME280;66332;50.436;15.378;2023-03-31T14:27:55;96668.84;;;10.49;85.29
77279;BME280;66332;50.436;15.378;2023-03-31T14:32:56;96670.78;;;10.61;85.20
77279;BME280;66332;50.436;15.378;2023-03-31T14:37:42;96663.94;;;10.78;85.26
77279;BME280;66332;50.436;15.378;2023-03-31T14:42:36;96656.59;;;10.80;83.88
77279;BME280;66332;50.436;15.378;2023-03-31T14:47:21;96644.66;;;10.66;84.61
77279;BME280;66332;50.436;15.378;2023-03-31T14:52:13;96649.38;;;10.75;84.85
77279;BME280;66332;50.436;15.378;2023-03-31T14:56:57;96641.28;;;10.77;84.54
77279;BME280;66332;50.436;15.378;2023-03-31T15:01:39;96636.44;;;10.74;85.27
77279;BME280;66332;50.436;15.378;2023-03-31T15:06:23;96636.53;;;10.86;85.19
77279;BME280;66332;50.436;15.378;2023-03-31T15:11:08;96633.91;;;10.86;86.03
77279;BME280;66332;50.436;15.378;2023-03-31T15:15:49;96622.31;;;10.75;82.68
77279;BME280;66332;50.436;15.378;2023-03-31T15:20:36;96651.28;;;10.25;90.11
77279;BME280;66332;50.436;15.378;2023-03-31T15:25:17;96621.69;;;10.36;86.81
77279;BME280;66332;50.436;15.378;2023-03-31T15:29:59;96611.78;;;10.75;85.77
77279;BME280;66332;50.436;15.378;2023-03-31T15:34:42;96609.09;;;11.12;84.40
77279;BME280;66332;50.436;15.378;2023-03-31T15:39:25;96609.31;;;11.40;84.68
77279;BME280;66332;50.436;15.378;2023-03-31T15:49:18;96561.63;;;11.07;82.63
77279;BME280;66332;50.436;15.378;2023-03-31T15:54:00;96551.72;;;10.90;83.84
77279;BME280;66332;50.436;15.378;2023-03-31T15:58:52;96523.78;;;10.77;82.88
77279;BME280;66332;50.436;15.378;2023-03-31T16:03:34;96545.03;;;10.76;83.30
77279;BME280;66332;50.436;15.378;2023-03-31T16:08:45;96555.63;;;10.69;83.91
77279;BME280;66332;50.436;15.378;2023-03-31T16:13:28;96573.31;;;10.62;84.50
77279;BME280;66332;50.436;15.378;2023-03-31T16:18:14;96575.56;;;10.59;80.62
77279;BME280;66332;50.436;15.378;2023-03-31T16:22:58;96570.47;;;10.45;78.52
77279;BME280;66332;50.436;15.378;2023-03-31T16:27:46;96580.03;;;10.40;76.84
77279;BME280;66332;50.436;15.378;2023-03-31T16:32:28;96585.06;;;10.41;76.52
77279;BME280;66332;50.436;15.378;2023-03-31T16:37:09;96576.13;;;10.24;76.25
77279;BME280;66332;50.436;15.378;2023-03-31T16:41:51;96559.78;;;10.22;77.69
77279;BME280;66332;50.436;15.378;2023-03-31T16:46:32;96584.31;;;9.91;76.95
77279;BME280;66332;50.436;15.378;2023-03-31T16:51:12;96606.66;;;9.75;77.08
77279;BME280;66332;50.436;15.378;2023-03-31T16:55:54;96621.91;;;9.59;77.80
77279;BME280;66332;50.436;15.378;2023-03-31T17:00:37;96609.66;;;9.53;78.05
77279;BME280;66332;50.436;15.378;2023-03-31T17:05:19;96608.50;;;9.42;78.01
77279;BME280;66332;50.436;15.378;2023-03-31T17:10:01;96610.03;;;9.25;78.81
77279;BME280;66332;50.436;15.378;2023-03-31T17:14:41;96620.28;;;8.95;79.37
77279;BME280;66332;50.436;15.378;2023-03-31T17:19:22;96616.09;;;8.81;78.92
77279;BME280;66332;50.436;15.378;2023-03-31T17:24:07;96600.84;;;8.64;80.12
77279;BME280;66332;50.436;15.378;2023-03-31T17:28:48;96614.13;;;8.63;80.02
77279;BME280;66332;50.436;15.378;2023-03-31T17:33:29;96611.56;;;8.49;80.71
77279;BME280;66332;50.436;15.378;2023-03-31T17:38:10;96602.50;;;8.45;80.26
77279;BME280;66332;50.436;15.378;2023-03-31T17:42:53;96594.47;;;8.20;81.69
77279;BME280;66332;50.436;15.378;2023-03-31T17:47:36;96610.59;;;8.17;82.63
77279;BME280;66332;50.436;15.378;2023-03-31T17:52:17;96613.22;;;8.04;82.80
77279;BME280;66332;50.436;15.378;2023-03-31T17:56:58;96619.06;;;7.99;83.46
77279;BME280;66332;50.436;15.378;2023-03-31T18:01:46;96638.59;;;8.03;82.84
77279;BME280;66332;50.436;15.378;2023-03-31T18:06:28;96648.25;;;8.16;82.15
77279;BME280;66332;50.436;15.378;2023-03-31T18:11:10;96662.75;;;8.05;82.89
77279;BME280;66332;50.436;15.378;2023-03-31T18:15:51;96659.13;;;8.20;82.28
77279;BME280;66332;50.436;15.378;2023-03-31T18:20:32;96650.25;;;8.21;82.41
77279;BME280;66332;50.436;15.378;2023-03-31T18:25:14;96664.75;;;7.97;83.50
77279;BME280;66332;50.436;15.378;2023-03-31T18:29:55;96657.50;;;7.79;85.01
77279;BME280;66332;50.436;15.378;2023-03-31T18:34:36;96663.75;;;7.85;85.07
77279;BME280;66332;50.436;15.378;2023-03-31T18:39:17;96662.38;;;7.89;84.93
77279;BME280;66332;50.436;15.378;2023-03-31T18:43:59;96678.88;;;8.16;83.86
77279;BME280;66332;50.436;15.378;2023-03-31T18:48:40;96686.31;;;8.45;81.50
77279;BME280;66332;50.436;15.378;2023-03-31T18:53:22;96691.31;;;8.34;82.31
77279;BME280;66332;50.436;15.378;2023-03-31T18:58:03;96685.09;;;8.01;83.63
77279;BME280;66332;50.436;15.378;2023-03-31T19:02:45;96670.81;;;7.97;83.62
77279;BME280;66332;50.436;15.378;2023-03-31T19:07:26;96667.97;;;8.12;82.96
77279;BME280;66332;50.436;15.378;2023-03-31T19:12:07;96659.34;;;7.98;82.54
77279;BME280;66332;50.436;15.378;2023-03-31T19:16:48;96672.22;;;8.00;83.63
77279;BME280;66332;50.436;15.378;2023-03-31T19:21:29;96653.72;;;7.95;84.11
77279;BME280;66332;50.436;15.378;2023-03-31T19:26:13;96639.19;;;7.72;85.07
77279;BME280;66332;50.436;15.378;2023-03-31T19:30:56;96646.84;;;7.67;84.55
77279;BME280;66332;50.436;15.378;2023-03-31T19:35:41;96645.84;;;7.55;84.71
77279;BME280;66332;50.436;15.378;2023-03-31T19:40:22;96643.41;;;7.47;84.47
77279;BME280;66332;50.436;15.378;2023-03-31T19:45:04;96604.53;;;7.24;85.10
77279;BME280;66332;50.436;15.378;2023-03-31T19:49:45;96635.56;;;7.47;84.58
77279;BME280;66332;50.436;15.378;2023-03-31T19:54:27;96635.72;;;7.45;85.10
77279;BME280;66332;50.436;15.378;2023-03-31T19:59:08;96626.72;;;7.61;84.11
77279;BME280;66332;50.436;15.378;2023-03-31T20:03:49;96616.25;;;7.61;83.82
77279;BME280;66332;50.436;15.378;2023-03-31T20:08:33;96647.44;;;7.49;85.07
77279;BME280;66332;50.436;15.378;2023-03-31T20:13:15;96613.94;;;7.11;86.16
77279;BME280;66332;50.436;15.378;2023-03-31T20:17:58;96661.97;;;6.97;87.67
77279;BME280;66332;50.436;15.378;2023-03-31T20:22:39;96653.25;;;6.83;87.69
77279;BME280;66332;50.436;15.378;2023-03-31T20:27:21;96623.88;;;6.33;89.20
77279;BME280;66332;50.436;15.378;2023-03-31T20:32:05;96634.41;;;6.53;88.87
77279;BME280;66332;50.436;15.378;2023-03-31T20:36:48;96643.56;;;6.71;88.44
77279;BME280;66332;50.436;15.378;2023-03-31T20:41:31;96615.78;;;6.63;88.42
77279;BME280;66332;50.436;15.378;2023-03-31T20:46:13;96677.66;;;7.04;88.37
77279;BME280;66332;50.436;15.378;2023-03-31T20:50:54;96638.09;;;7.13;86.74
77279;BME280;66332;50.436;15.378;2023-03-31T20:55:35;96679.19;;;7.40;87.18
77279;BME280;66332;50.436;15.378;2023-03-31T21:00:17;96683.41;;;7.34;87.37
77279;BME280;66332;50.436;15.378;2023-03-31T21:04:57;96687.84;;;7.40;86.59
77279;BME280;66332;50.436;15.378;2023-03-31T21:09:38;96675.97;;;7.51;86.77
77279;BME280;66332;50.436;15.378;2023-03-31T21:14:19;96684.03;;;7.56;86.53
77279;BME280;66332;50.436;15.378;2023-03-31T21:19:01;96687.28;;;7.65;86.46
77279;BME280;66332;50.436;15.378;2023-03-31T21:23:42;96670.97;;;7.56;86.24
77279;BME280;66332;50.436;15.378;2023-03-31T21:28:26;96684.84;;;7.56;86.71
77279;BME280;66332;50.436;15.378;2023-03-31T21:33:07;96683.00;;;7.44;87.79
77279;BME280;66332;50.436;15.378;2023-03-31T21:37:48;96689.25;;;7.43;87.38
77279;BME280;66332;50.436;15.378;2023-03-31T21:42:31;96688.25;;;7.57;87.00
77279;BME280;66332;50.436;15.378;2023-03-31T21:47:12;96677.63;;;7.58;86.67
77279;BME280;66332;50.436;15.378;2023-03-31T21:51:53;96670.13;;;7.42;87.36
